Ostrander, Minnesota
Current Conditions -  °F | °C
As of 2:55 AM on Saturday 25 Oct 2014 (Local Time) from KFKA Reporting Station
Clear Clear  
Wind Chill: 52°   Ceiling: Unl
Heat Index: 52°   Visibility: 10mi
Dew Point: 46°   Wind: 9mph
Humidity: 79%   Direction: 310°NW
Pressure: 29.95"   Gusts: NA
Location:  43.61°N, 92.43°W
Report Text: KFKA 250755Z AUTO 31008KT 10SM CLR 11/08 A2995 RMK AO2 T01100075
Loading
Personal Weather Stations






























Interactive Weather Map
Tropical Storm Tracking
New forecast layout! Learn more

10-Day Weather Forecast

Advertisements
Track Severe Weather on mobile